TAM3269 SBCY-SBGR
Flight info
| Callsign | TAM3269 |
|---|---|
| Flight time | 1h 48m |
| Altitude | 35000 |
| Route | DIKUN UZ82 ANSOK UZ42 ZARES |
| Aircraft | A319/M-SDE3FGHIRWY/LB1 |
Departure
| Time | 2026-04-23 18:05 |
|---|---|
| Airport | Várzea Grande–Marechal Rondon International Airport (SBCY) |
Arrival
| Time | 2026-04-23 19:54 |
|---|---|
| Airport | São Paulo/Guarulhos–Governor André Franco Montoro International Airport (SBGR) |
| Time | Latitude | Longitude | Altitude | Speed | Heading |
|---|---|---|---|---|---|
| 2026-04-23 17:53 | -15.65053 | -56.11986 | 605 ft | 0 kts | 243° |
| 2026-04-23 17:58 | -15.65052 | -56.11984 | 605 ft | 3 kts | 243° |
| 2026-04-23 17:59 | -15.65038 | -56.11961 | 615 ft | 4 kts | 221° |
| 2026-04-23 17:59 | -15.65016 | -56.11950 | 611 ft | 4 kts | 171° |
| 2026-04-23 17:59 | -15.65004 | -56.11954 | 605 ft | 1 kts | 152° |
| 2026-04-23 17:59 | -15.65003 | -56.11955 | 605 ft | 0 kts | 152° |
| 2026-04-23 18:01 | -15.65022 | -56.11945 | 660 ft | 6 kts | 154° |
| 2026-04-23 18:01 | -15.65074 | -56.11913 | 611 ft | 9 kts | 136° |
| 2026-04-23 18:02 | -15.65081 | -56.11877 | 605 ft | 7 kts | 80° |
| 2026-04-23 18:02 | -15.65055 | -56.11829 | 606 ft | 4 kts | 47° |
| 2026-04-23 18:02 | -15.65037 | -56.11819 | 607 ft | 4 kts | 15° |
| 2026-04-23 18:02 | -15.64988 | -56.11832 | 613 ft | 11 kts | 335° |
| 2026-04-23 18:03 | -15.64890 | -56.11884 | 613 ft | 20 kts | 335° |
| 2026-04-23 18:03 | -15.64780 | -56.11942 | 617 ft | 16 kts | 333° |
| 2026-04-23 18:03 | -15.64658 | -56.12006 | 621 ft | 23 kts | 332° |
| 2026-04-23 18:03 | -15.64501 | -56.12089 | 619 ft | 29 kts | 330° |
| 2026-04-23 18:04 | -15.64402 | -56.12176 | 627 ft | 13 kts | 8° |
| 2026-04-23 18:04 | -15.64410 | -56.12138 | 630 ft | 0 kts | 158° |
| 2026-04-23 18:04 | -15.64419 | -56.12134 | 629 ft | 15 kts | 156° |
| 2026-04-23 18:04 | -15.64754 | -56.11956 | 616 ft | 89 kts | 153° |
| 2026-04-23 18:05 | -15.65481 | -56.11569 | 602 ft | 143 kts | 153° |
| 2026-04-23 18:05 | -15.66466 | -56.11050 | 824 ft | 164 kts | 151° |
| 2026-04-23 18:05 | -15.67475 | -56.10511 | 1376 ft | 162 kts | 151° |
| 2026-04-23 18:05 | -15.68481 | -56.09976 | 1877 ft | 166 kts | 152° |
| 2026-04-23 18:06 | -15.69573 | -56.09394 | 2134 ft | 187 kts | 152° |
| 2026-04-23 18:06 | -15.70781 | -56.08753 | 2385 ft | 209 kts | 152° |
| 2026-04-23 18:06 | -15.72171 | -56.08013 | 2641 ft | 235 kts | 152° |
| 2026-04-23 18:06 | -15.73704 | -56.07199 | 3042 ft | 258 kts | 152° |
| 2026-04-23 18:07 | -15.75338 | -56.06333 | 3751 ft | 268 kts | 152° |
| 2026-04-23 18:07 | -15.77010 | -56.05445 | 4640 ft | 271 kts | 152° |
| 2026-04-23 18:07 | -15.78680 | -56.04558 | 5495 ft | 275 kts | 152° |
| 2026-04-23 18:07 | -15.80395 | -56.03643 | 6355 ft | 280 kts | 151° |
| 2026-04-23 18:08 | -15.81569 | -56.03016 | 6900 ft | 283 kts | 151° |
| 2026-04-23 18:08 | -15.83907 | -56.01767 | 8023 ft | 287 kts | 151° |
| 2026-04-23 18:08 | -15.85692 | -56.00815 | 8875 ft | 290 kts | 151° |
| 2026-04-23 18:08 | -15.87495 | -55.99856 | 9722 ft | 293 kts | 151° |
| 2026-04-23 18:09 | -15.89338 | -55.98873 | 10246 ft | 308 kts | 151° |
| 2026-04-23 18:09 | -15.91279 | -55.97762 | 10563 ft | 327 kts | 144° |
| 2026-04-23 18:09 | -15.93036 | -55.96239 | 11180 ft | 332 kts | 132° |
| 2026-04-23 18:09 | -15.94540 | -55.94406 | 11908 ft | 335 kts | 128° |
| 2026-04-23 18:10 | -15.96034 | -55.92534 | 12654 ft | 338 kts | 128° |
| 2026-04-23 18:10 | -15.97543 | -55.90647 | 13392 ft | 341 kts | 128° |
| 2026-04-23 18:10 | -15.99069 | -55.88739 | 14072 ft | 344 kts | 128° |
| 2026-04-23 18:10 | -16.00608 | -55.86818 | 14695 ft | 348 kts | 129° |
| 2026-04-23 18:11 | -16.02166 | -55.84876 | 15274 ft | 352 kts | 129° |
| 2026-04-23 18:11 | -16.03740 | -55.82913 | 15866 ft | 355 kts | 129° |
| 2026-04-23 18:11 | -16.05327 | -55.80927 | 16455 ft | 359 kts | 129° |
| 2026-04-23 18:11 | -16.06927 | -55.78921 | 17051 ft | 362 kts | 129° |
| 2026-04-23 18:12 | -16.08540 | -55.76896 | 17635 ft | 365 kts | 129° |
| 2026-04-23 18:12 | -16.10167 | -55.74854 | 18200 ft | 368 kts | 129° |
| 2026-04-23 18:12 | -16.11810 | -55.72794 | 18676 ft | 371 kts | 129° |
| 2026-04-23 18:12 | -16.13464 | -55.70721 | 19139 ft | 375 kts | 129° |
| 2026-04-23 18:13 | -16.15138 | -55.68620 | 19601 ft | 378 kts | 129° |
| 2026-04-23 18:13 | -16.16825 | -55.66503 | 20072 ft | 382 kts | 129° |
| 2026-04-23 18:13 | -16.18527 | -55.64368 | 20526 ft | 386 kts | 129° |
| 2026-04-23 18:13 | -16.20249 | -55.62207 | 20989 ft | 389 kts | 128° |
| 2026-04-23 18:14 | -16.21394 | -55.60768 | 21279 ft | 392 kts | 128° |
| 2026-04-23 18:14 | -16.23735 | -55.57830 | 21874 ft | 397 kts | 128° |
| 2026-04-23 18:14 | -16.24906 | -55.56361 | 22182 ft | 399 kts | 128° |
| 2026-04-23 18:14 | -16.27296 | -55.53363 | 22775 ft | 404 kts | 128° |
| 2026-04-23 18:15 | -16.28485 | -55.51869 | 23080 ft | 407 kts | 128° |
| 2026-04-23 18:15 | -16.30297 | -55.49589 | 23497 ft | 411 kts | 128° |
| 2026-04-23 18:15 | -16.32126 | -55.47286 | 23841 ft | 414 kts | 128° |
| 2026-04-23 18:15 | -16.33964 | -55.44971 | 24202 ft | 416 kts | 128° |
| 2026-04-23 18:16 | -16.35815 | -55.42636 | 24576 ft | 419 kts | 127° |
| 2026-04-23 18:16 | -16.37665 | -55.40283 | 24942 ft | 420 kts | 125° |
| 2026-04-23 18:16 | -16.39326 | -55.37776 | 25299 ft | 422 kts | 121° |
| 2026-04-23 18:17 | -16.42621 | -55.32688 | 26042 ft | 425 kts | 121° |
| 2026-04-23 18:17 | -16.44285 | -55.30133 | 26406 ft | 427 kts | 121° |
| 2026-04-23 18:17 | -16.45958 | -55.27562 | 26765 ft | 429 kts | 121° |
| 2026-04-23 18:17 | -16.47633 | -55.24981 | 27116 ft | 431 kts | 121° |
| 2026-04-23 18:18 | -16.49315 | -55.22386 | 27444 ft | 434 kts | 121° |
| 2026-04-23 18:18 | -16.51011 | -55.19770 | 27773 ft | 436 kts | 121° |
| 2026-04-23 18:18 | -16.52714 | -55.17142 | 28113 ft | 438 kts | 121° |
| 2026-04-23 18:18 | -16.54425 | -55.14503 | 28450 ft | 440 kts | 121° |
| 2026-04-23 18:19 | -16.56141 | -55.11849 | 28780 ft | 442 kts | 121° |
| 2026-04-23 18:19 | -16.57860 | -55.09183 | 29101 ft | 444 kts | 120° |
| 2026-04-23 18:19 | -16.59589 | -55.06505 | 29426 ft | 447 kts | 120° |
| 2026-04-23 18:19 | -16.61333 | -55.03808 | 29761 ft | 449 kts | 120° |
| 2026-04-23 18:20 | -16.63079 | -55.01109 | 30059 ft | 451 kts | 120° |
| 2026-04-23 18:20 | -16.64835 | -54.98394 | 30345 ft | 452 kts | 121° |
| 2026-04-23 18:20 | -16.66596 | -54.95672 | 30626 ft | 454 kts | 121° |
| 2026-04-23 18:20 | -16.68364 | -54.92933 | 30890 ft | 455 kts | 121° |
| 2026-04-23 18:21 | -16.70134 | -54.90181 | 31139 ft | 457 kts | 121° |
| 2026-04-23 18:21 | -16.71913 | -54.87420 | 31360 ft | 460 kts | 121° |
| 2026-04-23 18:21 | -16.73706 | -54.84639 | 31606 ft | 462 kts | 121° |
| 2026-04-23 18:21 | -16.75447 | -54.81933 | 31940 ft | 462 kts | 122° |
| 2026-04-23 18:22 | -16.77230 | -54.79159 | 32313 ft | 461 kts | 122° |
| 2026-04-23 18:22 | -16.79018 | -54.76375 | 32680 ft | 460 kts | 122° |
| 2026-04-23 18:22 | -16.80800 | -54.73605 | 33058 ft | 459 kts | 122° |
| 2026-04-23 18:22 | -16.82580 | -54.70839 | 33446 ft | 458 kts | 123° |
| 2026-04-23 18:23 | -16.84356 | -54.68078 | 33828 ft | 458 kts | 123° |
| 2026-04-23 18:23 | -16.87901 | -54.62570 | 34487 ft | 456 kts | 123° |
| 2026-04-23 18:24 | -16.91425 | -54.57087 | 34911 ft | 453 kts | 123° |
| 2026-04-23 18:24 | -16.93160 | -54.54383 | 34943 ft | 444 kts | 123° |
| 2026-04-23 18:25 | -16.98247 | -54.46429 | 34941 ft | 439 kts | 123° |
| 2026-04-23 18:25 | -17.01643 | -54.41130 | 34948 ft | 439 kts | 123° |
| 2026-04-23 18:26 | -17.05039 | -54.35833 | 34947 ft | 439 kts | 123° |
| 2026-04-23 18:26 | -17.08429 | -54.30539 | 34945 ft | 438 kts | 123° |
| 2026-04-23 18:27 | -17.11811 | -54.25234 | 34944 ft | 438 kts | 123° |
| 2026-04-23 18:27 | -17.15190 | -54.19933 | 34945 ft | 438 kts | 123° |
| 2026-04-23 18:28 | -17.18581 | -54.14628 | 34950 ft | 438 kts | 123° |
| 2026-04-23 18:28 | -17.21966 | -54.09319 | 34950 ft | 438 kts | 123° |
| 2026-04-23 18:29 | -17.25349 | -54.04008 | 34950 ft | 438 kts | 123° |
| 2026-04-23 18:29 | -17.28729 | -53.98701 | 34956 ft | 438 kts | 124° |
| 2026-04-23 18:30 | -17.32800 | -53.93984 | 34962 ft | 437 kts | 137° |
| 2026-04-23 18:30 | -17.37285 | -53.89692 | 34953 ft | 437 kts | 138° |
| 2026-04-23 18:31 | -17.41778 | -53.85385 | 34947 ft | 438 kts | 137° |
| 2026-04-23 18:31 | -17.46237 | -53.81094 | 34943 ft | 438 kts | 137° |
| 2026-04-23 18:32 | -17.50728 | -53.76766 | 34943 ft | 438 kts | 137° |
| 2026-04-23 18:32 | -17.55215 | -53.72436 | 34946 ft | 438 kts | 137° |
| 2026-04-23 18:33 | -17.59708 | -53.68111 | 34946 ft | 438 kts | 138° |
| 2026-04-23 18:33 | -17.64189 | -53.63781 | 34943 ft | 438 kts | 137° |
| 2026-04-23 18:34 | -17.68670 | -53.59453 | 34939 ft | 438 kts | 138° |
| 2026-04-23 18:34 | -17.73164 | -53.55125 | 34939 ft | 438 kts | 138° |
| 2026-04-23 18:35 | -17.77641 | -53.50786 | 34947 ft | 438 kts | 137° |
| 2026-04-23 18:35 | -17.82114 | -53.46450 | 34945 ft | 438 kts | 138° |
| 2026-04-23 18:36 | -17.86598 | -53.42116 | 34944 ft | 438 kts | 138° |
| 2026-04-23 18:36 | -17.91050 | -53.37800 | 34944 ft | 438 kts | 138° |
| 2026-04-23 18:37 | -17.95562 | -53.33423 | 34952 ft | 439 kts | 138° |
| 2026-04-23 18:37 | -18.00044 | -53.29073 | 34953 ft | 439 kts | 138° |
| 2026-04-23 18:38 | -18.04520 | -53.24718 | 34954 ft | 439 kts | 137° |
| 2026-04-23 18:38 | -18.08998 | -53.20363 | 34958 ft | 438 kts | 138° |
| 2026-04-23 18:39 | -18.13446 | -53.16042 | 34959 ft | 438 kts | 138° |
| 2026-04-23 18:39 | -18.17920 | -53.11689 | 34961 ft | 438 kts | 138° |
| 2026-04-23 18:40 | -18.22380 | -53.07336 | 34958 ft | 438 kts | 137° |
| 2026-04-23 18:40 | -18.26847 | -53.02983 | 34965 ft | 437 kts | 138° |
| 2026-04-23 18:41 | -18.31318 | -52.98636 | 34960 ft | 438 kts | 138° |
| 2026-04-23 18:41 | -18.35780 | -52.94273 | 34962 ft | 438 kts | 138° |
| 2026-04-23 18:42 | -18.40247 | -52.89902 | 34958 ft | 438 kts | 138° |
| 2026-04-23 18:42 | -18.44716 | -52.85537 | 34965 ft | 438 kts | 138° |
| 2026-04-23 18:43 | -18.49182 | -52.81172 | 34966 ft | 438 kts | 138° |
| 2026-04-23 18:43 | -18.53648 | -52.76794 | 34962 ft | 439 kts | 138° |
| 2026-04-23 18:44 | -18.58114 | -52.72414 | 34964 ft | 439 kts | 138° |
| 2026-04-23 18:44 | -18.62555 | -52.68058 | 34966 ft | 439 kts | 138° |
| 2026-04-23 18:45 | -18.67019 | -52.63677 | 34968 ft | 439 kts | 138° |
| 2026-04-23 18:45 | -18.71489 | -52.59291 | 34969 ft | 439 kts | 138° |
| 2026-04-23 18:46 | -18.75955 | -52.54899 | 34958 ft | 439 kts | 138° |
| 2026-04-23 18:46 | -18.80428 | -52.50502 | 34960 ft | 440 kts | 138° |
| 2026-04-23 18:47 | -18.84906 | -52.46098 | 34961 ft | 440 kts | 138° |
| 2026-04-23 18:47 | -18.89378 | -52.41694 | 34964 ft | 440 kts | 138° |
| 2026-04-23 18:48 | -18.93846 | -52.37275 | 34968 ft | 440 kts | 138° |
| 2026-04-23 18:48 | -18.98311 | -52.32848 | 34963 ft | 440 kts | 138° |
| 2026-04-23 18:49 | -19.02781 | -52.28419 | 34959 ft | 441 kts | 138° |
| 2026-04-23 18:49 | -19.07266 | -52.23983 | 34966 ft | 441 kts | 138° |
| 2026-04-23 18:50 | -19.10982 | -52.20300 | 34966 ft | 441 kts | 138° |
| 2026-04-23 18:50 | -19.16200 | -52.15112 | 34971 ft | 440 kts | 138° |
| 2026-04-23 18:51 | -19.20661 | -52.10660 | 34965 ft | 441 kts | 138° |
| 2026-04-23 18:51 | -19.25122 | -52.06212 | 34958 ft | 441 kts | 138° |
| 2026-04-23 18:52 | -19.29597 | -52.01764 | 34961 ft | 441 kts | 138° |
| 2026-04-23 18:52 | -19.34070 | -51.97317 | 34965 ft | 441 kts | 138° |
| 2026-04-23 18:53 | -19.38538 | -51.92859 | 34968 ft | 441 kts | 138° |
| 2026-04-23 18:53 | -19.42972 | -51.88428 | 34964 ft | 441 kts | 138° |
| 2026-04-23 18:54 | -19.47443 | -51.83962 | 34961 ft | 442 kts | 138° |
| 2026-04-23 18:54 | -19.51915 | -51.79493 | 34959 ft | 442 kts | 138° |
| 2026-04-23 18:55 | -19.56388 | -51.75025 | 34961 ft | 441 kts | 138° |
| 2026-04-23 18:55 | -19.60864 | -51.70551 | 34963 ft | 441 kts | 138° |
| 2026-04-23 18:56 | -19.64575 | -51.66833 | 34957 ft | 441 kts | 139° |
| 2026-04-23 18:56 | -19.69893 | -51.61713 | 34956 ft | 441 kts | 142° |
| 2026-04-23 18:57 | -19.74637 | -51.57575 | 34957 ft | 441 kts | 143° |
| 2026-04-23 18:57 | -19.79390 | -51.53462 | 34960 ft | 441 kts | 142° |
| 2026-04-23 18:58 | -19.83318 | -51.49999 | 34963 ft | 441 kts | 142° |
| 2026-04-23 18:58 | -19.88023 | -51.45802 | 34959 ft | 442 kts | 142° |
| 2026-04-23 18:59 | -19.92723 | -51.41590 | 34956 ft | 442 kts | 142° |
| 2026-04-23 18:59 | -19.97313 | -51.37491 | 34958 ft | 442 kts | 142° |
| 2026-04-23 19:00 | -20.02028 | -51.33297 | 34957 ft | 442 kts | 142° |
| 2026-04-23 19:00 | -20.06752 | -51.29099 | 34958 ft | 442 kts | 142° |
| 2026-04-23 19:01 | -20.11473 | -51.24887 | 34961 ft | 443 kts | 142° |
| 2026-04-23 19:01 | -20.16154 | -51.20688 | 34961 ft | 443 kts | 142° |
| 2026-04-23 19:02 | -20.20862 | -51.16469 | 34965 ft | 443 kts | 142° |
| 2026-04-23 19:02 | -20.25520 | -51.12303 | 34966 ft | 443 kts | 142° |
| 2026-04-23 19:03 | -20.30237 | -51.08078 | 34968 ft | 443 kts | 142° |
| 2026-04-23 19:03 | -20.34946 | -51.03841 | 34965 ft | 443 kts | 142° |
| 2026-04-23 19:04 | -20.39655 | -50.99616 | 34964 ft | 442 kts | 142° |
| 2026-04-23 19:04 | -20.44363 | -50.95387 | 34960 ft | 442 kts | 142° |
| 2026-04-23 19:05 | -20.49070 | -50.91155 | 34960 ft | 442 kts | 142° |
| 2026-04-23 19:05 | -20.53782 | -50.86933 | 34957 ft | 442 kts | 142° |
| 2026-04-23 19:06 | -20.58488 | -50.82696 | 34959 ft | 443 kts | 142° |
| 2026-04-23 19:06 | -20.63190 | -50.78448 | 34961 ft | 443 kts | 142° |
| 2026-04-23 19:07 | -20.67890 | -50.74205 | 34964 ft | 443 kts | 142° |
| 2026-04-23 19:07 | -20.72600 | -50.69955 | 34965 ft | 443 kts | 142° |
| 2026-04-23 19:08 | -20.77308 | -50.65697 | 34965 ft | 444 kts | 142° |
| 2026-04-23 19:08 | -20.82016 | -50.61427 | 34971 ft | 444 kts | 142° |
| 2026-04-23 19:09 | -20.86718 | -50.57157 | 34973 ft | 443 kts | 142° |
| 2026-04-23 19:09 | -20.91415 | -50.52878 | 34970 ft | 443 kts | 142° |
| 2026-04-23 19:10 | -20.96103 | -50.48594 | 34966 ft | 443 kts | 142° |
| 2026-04-23 19:10 | -21.00798 | -50.44313 | 34965 ft | 443 kts | 142° |
| 2026-04-23 19:11 | -21.05498 | -50.40037 | 34974 ft | 443 kts | 142° |
| 2026-04-23 19:11 | -21.10161 | -50.35776 | 35023 ft | 444 kts | 142° |
| 2026-04-23 19:12 | -21.14100 | -50.32177 | 35017 ft | 444 kts | 142° |
| 2026-04-23 19:12 | -21.19564 | -50.27182 | 35008 ft | 444 kts | 142° |
| 2026-04-23 19:13 | -21.24263 | -50.22872 | 35000 ft | 444 kts | 142° |
| 2026-04-23 19:13 | -21.28959 | -50.18559 | 34994 ft | 444 kts | 142° |
| 2026-04-23 19:14 | -21.33659 | -50.14248 | 34980 ft | 444 kts | 142° |
| 2026-04-23 19:14 | -21.38366 | -50.09932 | 34978 ft | 444 kts | 142° |
| 2026-04-23 19:15 | -21.43068 | -50.05610 | 34982 ft | 444 kts | 142° |
| 2026-04-23 19:15 | -21.47726 | -50.01323 | 34983 ft | 444 kts | 142° |
| 2026-04-23 19:16 | -21.52455 | -49.96980 | 34980 ft | 445 kts | 143° |
| 2026-04-23 19:16 | -21.57123 | -49.92677 | 34978 ft | 445 kts | 142° |
| 2026-04-23 19:17 | -21.64159 | -49.86179 | 34982 ft | 444 kts | 142° |
| 2026-04-23 19:17 | -21.68862 | -49.81839 | 34985 ft | 444 kts | 142° |
| 2026-04-23 19:18 | -21.73558 | -49.77506 | 34984 ft | 445 kts | 142° |
| 2026-04-23 19:18 | -21.78228 | -49.73190 | 34980 ft | 445 kts | 142° |
| 2026-04-23 19:19 | -21.85274 | -49.66670 | 34994 ft | 445 kts | 142° |
| 2026-04-23 19:20 | -21.92315 | -49.60142 | 34993 ft | 445 kts | 143° |
| 2026-04-23 19:20 | -21.97015 | -49.55781 | 34993 ft | 446 kts | 142° |
| 2026-04-23 19:21 | -22.04067 | -49.49209 | 35002 ft | 446 kts | 142° |
| 2026-04-23 19:22 | -22.08763 | -49.44820 | 35013 ft | 446 kts | 142° |
| 2026-04-23 19:22 | -22.15779 | -49.38263 | 35010 ft | 447 kts | 142° |
| 2026-04-23 19:23 | -22.20487 | -49.33859 | 35018 ft | 447 kts | 142° |
| 2026-04-23 19:24 | -22.27544 | -49.27245 | 35034 ft | 447 kts | 142° |
| 2026-04-23 19:24 | -22.34566 | -49.20678 | 35049 ft | 447 kts | 142° |
| 2026-04-23 19:25 | -22.38801 | -49.15738 | 35054 ft | 453 kts | 126° |
| 2026-04-23 19:25 | -22.41436 | -49.09542 | 35053 ft | 457 kts | 110° |
| 2026-04-23 19:26 | -22.44461 | -48.99750 | 35052 ft | 458 kts | 110° |
| 2026-04-23 19:27 | -22.49500 | -48.83435 | 35038 ft | 459 kts | 110° |
| 2026-04-23 19:28 | -22.53534 | -48.70308 | 35043 ft | 460 kts | 110° |
| 2026-04-23 19:29 | -22.56549 | -48.60460 | 35050 ft | 460 kts | 110° |
| 2026-04-23 19:30 | -22.59556 | -48.50602 | 35051 ft | 460 kts | 110° |
| 2026-04-23 19:31 | -22.62603 | -48.40806 | 35073 ft | 459 kts | 112° |
| 2026-04-23 19:31 | -22.64973 | -48.34416 | 35182 ft | 456 kts | 117° |
| 2026-04-23 19:32 | -22.67890 | -48.28314 | 35354 ft | 450 kts | 124° |
| 2026-04-23 19:32 | -22.69537 | -48.25544 | 35428 ft | 427 kts | 129° |
| 2026-04-23 19:32 | -22.71296 | -48.23047 | 35506 ft | 408 kts | 134° |
| 2026-04-23 19:32 | -22.72937 | -48.20559 | 34652 ft | 424 kts | 118° |
| 2026-04-23 19:33 | -22.73738 | -48.17419 | 33660 ft | 443 kts | 95° |
| 2026-04-23 19:33 | -22.73841 | -48.14034 | 32598 ft | 456 kts | 92° |
| 2026-04-23 19:33 | -22.73993 | -48.06998 | 30779 ft | 473 kts | 92° |
| 2026-04-23 19:34 | -22.74423 | -48.03466 | 30104 ft | 473 kts | 104° |
| 2026-04-23 19:34 | -22.75298 | -48.00059 | 29564 ft | 472 kts | 108° |
| 2026-04-23 19:34 | -22.77702 | -47.93174 | 28527 ft | 496 kts | 120° |
| 2026-04-23 19:35 | -22.79329 | -47.89898 | 27879 ft | 492 kts | 120° |
| 2026-04-23 19:35 | -22.80924 | -47.86644 | 27201 ft | 487 kts | 120° |
| 2026-04-23 19:35 | -22.82492 | -47.83412 | 26549 ft | 481 kts | 119° |
| 2026-04-23 19:35 | -22.84031 | -47.80208 | 25948 ft | 476 kts | 119° |
| 2026-04-23 19:36 | -22.85540 | -47.77051 | 25375 ft | 470 kts | 119° |
| 2026-04-23 19:36 | -22.87036 | -47.73921 | 24811 ft | 464 kts | 119° |
| 2026-04-23 19:36 | -22.88516 | -47.70835 | 24241 ft | 458 kts | 118° |
| 2026-04-23 19:36 | -22.89981 | -47.67789 | 23684 ft | 453 kts | 118° |
| 2026-04-23 19:37 | -22.91431 | -47.64773 | 23050 ft | 448 kts | 118° |
| 2026-04-23 19:37 | -22.92863 | -47.61793 | 22464 ft | 442 kts | 118° |
| 2026-04-23 19:37 | -22.94275 | -47.58851 | 21918 ft | 436 kts | 118° |
| 2026-04-23 19:37 | -22.95672 | -47.55949 | 21399 ft | 431 kts | 118° |
| 2026-04-23 19:38 | -22.97052 | -47.53084 | 20894 ft | 426 kts | 118° |
| 2026-04-23 19:38 | -22.98417 | -47.50250 | 20421 ft | 421 kts | 118° |
| 2026-04-23 19:38 | -22.99766 | -47.47443 | 19967 ft | 416 kts | 117° |
| 2026-04-23 19:38 | -23.01093 | -47.44671 | 19527 ft | 412 kts | 117° |
| 2026-04-23 19:39 | -23.02407 | -47.41922 | 19097 ft | 407 kts | 117° |
| 2026-04-23 19:39 | -23.03705 | -47.39207 | 18688 ft | 402 kts | 117° |
| 2026-04-23 19:39 | -23.04968 | -47.36573 | 18520 ft | 383 kts | 117° |
| 2026-04-23 19:39 | -23.06173 | -47.34059 | 17964 ft | 370 kts | 117° |
| 2026-04-23 19:40 | -23.07349 | -47.31596 | 17245 ft | 364 kts | 117° |
| 2026-04-23 19:40 | -23.08493 | -47.29197 | 16894 ft | 348 kts | 117° |
| 2026-04-23 19:40 | -23.09573 | -47.26934 | 16692 ft | 329 kts | 117° |
| 2026-04-23 19:40 | -23.10613 | -47.24754 | 16224 ft | 322 kts | 117° |
| 2026-04-23 19:41 | -23.11635 | -47.22610 | 15690 ft | 318 kts | 117° |
| 2026-04-23 19:41 | -23.12528 | -47.20437 | 15152 ft | 313 kts | 105° |
| 2026-04-23 19:41 | -23.12826 | -47.18906 | 14622 ft | 316 kts | 95° |
| 2026-04-23 19:41 | -23.12552 | -47.15686 | 13336 ft | 327 kts | 74° |
| 2026-04-23 19:42 | -23.12085 | -47.13263 | 12327 ft | 331 kts | 89° |
| 2026-04-23 19:42 | -23.12308 | -47.10874 | 11396 ft | 333 kts | 99° |
| 2026-04-23 19:42 | -23.12583 | -47.09232 | 10793 ft | 334 kts | 101° |
| 2026-04-23 19:42 | -23.13053 | -47.06804 | 10334 ft | 320 kts | 101° |
| 2026-04-23 19:43 | -23.13641 | -47.03743 | 9596 ft | 307 kts | 101° |
| 2026-04-23 19:43 | -23.14037 | -47.01486 | 8964 ft | 301 kts | 100° |
| 2026-04-23 19:43 | -23.14397 | -46.99269 | 8355 ft | 295 kts | 99° |
| 2026-04-23 19:43 | -23.14775 | -46.97139 | 8135 ft | 280 kts | 107° |
| 2026-04-23 19:44 | -23.15656 | -46.95305 | 8045 ft | 274 kts | 127° |
| 2026-04-23 19:44 | -23.16559 | -46.94316 | 7955 ft | 272 kts | 139° |
| 2026-04-23 19:44 | -23.17991 | -46.93012 | 7841 ft | 272 kts | 138° |
| 2026-04-23 19:44 | -23.19436 | -46.91697 | 7717 ft | 271 kts | 139° |
| 2026-04-23 19:45 | -23.20875 | -46.90388 | 7591 ft | 268 kts | 138° |
| 2026-04-23 19:45 | -23.22298 | -46.89095 | 7470 ft | 266 kts | 138° |
| 2026-04-23 19:45 | -23.23713 | -46.87809 | 7352 ft | 265 kts | 139° |
| 2026-04-23 19:45 | -23.25125 | -46.86522 | 7241 ft | 265 kts | 138° |
| 2026-04-23 19:46 | -23.26538 | -46.85235 | 7123 ft | 263 kts | 138° |
| 2026-04-23 19:46 | -23.27935 | -46.83960 | 7011 ft | 262 kts | 138° |
| 2026-04-23 19:46 | -23.29334 | -46.82683 | 6893 ft | 262 kts | 138° |
| 2026-04-23 19:46 | -23.30733 | -46.81409 | 6781 ft | 262 kts | 139° |
| 2026-04-23 19:47 | -23.32130 | -46.80137 | 6673 ft | 262 kts | 139° |
| 2026-04-23 19:47 | -23.33530 | -46.78859 | 6562 ft | 262 kts | 139° |
| 2026-04-23 19:47 | -23.34904 | -46.77605 | 6447 ft | 260 kts | 139° |
| 2026-04-23 19:47 | -23.36309 | -46.76323 | 6321 ft | 260 kts | 139° |
| 2026-04-23 19:48 | -23.37662 | -46.75088 | 6198 ft | 253 kts | 139° |
| 2026-04-23 19:48 | -23.39010 | -46.73855 | 6080 ft | 253 kts | 138° |
| 2026-04-23 19:48 | -23.40337 | -46.72643 | 5977 ft | 245 kts | 139° |
| 2026-04-23 19:48 | -23.41630 | -46.71464 | 5978 ft | 241 kts | 139° |
| 2026-04-23 19:49 | -23.42851 | -46.70218 | 5979 ft | 241 kts | 127° |
| 2026-04-23 19:49 | -23.43811 | -46.68726 | 5919 ft | 241 kts | 123° |
| 2026-04-23 19:49 | -23.44733 | -46.67252 | 5797 ft | 230 kts | 123° |
| 2026-04-23 19:49 | -23.45586 | -46.65893 | 5669 ft | 215 kts | 122° |
| 2026-04-23 19:50 | -23.46415 | -46.64575 | 5594 ft | 209 kts | 123° |
| 2026-04-23 19:50 | -23.47102 | -46.63216 | 5212 ft | 203 kts | 107° |
| 2026-04-23 19:50 | -23.47282 | -46.61747 | 4849 ft | 190 kts | 87° |
| 2026-04-23 19:50 | -23.47026 | -46.60398 | 4602 ft | 175 kts | 74° |
| 2026-04-23 19:51 | -23.46697 | -46.59173 | 4374 ft | 163 kts | 75° |
| 2026-04-23 19:51 | -23.46388 | -46.58024 | 4172 ft | 153 kts | 75° |
| 2026-04-23 19:51 | -23.46098 | -46.56946 | 3983 ft | 144 kts | 77° |
| 2026-04-23 19:51 | -23.45820 | -46.55910 | 3792 ft | 140 kts | 77° |
| 2026-04-23 19:52 | -23.45549 | -46.54901 | 3645 ft | 139 kts | 75° |
| 2026-04-23 19:52 | -23.45280 | -46.53904 | 3474 ft | 137 kts | 78° |
| 2026-04-23 19:52 | -23.45012 | -46.52905 | 3292 ft | 139 kts | 78° |
| 2026-04-23 19:52 | -23.44743 | -46.51909 | 3113 ft | 135 kts | 77° |
| 2026-04-23 19:53 | -23.44481 | -46.50939 | 2933 ft | 136 kts | 77° |
| 2026-04-23 19:53 | -23.44215 | -46.49953 | 2742 ft | 137 kts | 77° |
| 2026-04-23 19:53 | -23.43949 | -46.48953 | 2557 ft | 137 kts | 77° |
| 2026-04-23 19:53 | -23.43688 | -46.47981 | 2463 ft | 124 kts | 74° |
| 2026-04-23 19:54 | -23.43485 | -46.47237 | 2466 ft | 72 kts | 73° |
| 2026-04-23 19:54 | -23.43419 | -46.47011 | 2465 ft | 9 kts | 62° |
| 2026-04-23 19:54 | -23.43383 | -46.46955 | 2467 ft | 10 kts | 50° |
| 2026-04-23 19:54 | -23.43329 | -46.46894 | 2463 ft | 12 kts | 44° |
| 2026-04-23 19:55 | -23.43263 | -46.46824 | 2463 ft | 15 kts | 44° |
| 2026-04-23 19:55 | -23.43183 | -46.46745 | 2463 ft | 17 kts | 42° |
| 2026-04-23 19:55 | -23.43073 | -46.46724 | 2463 ft | 18 kts | 344° |
| 2026-04-23 19:55 | -23.42944 | -46.46766 | 2469 ft | 21 kts | 343° |
| 2026-04-23 19:56 | -23.42800 | -46.46813 | 2461 ft | 20 kts | 335° |
| 2026-04-23 19:56 | -23.42795 | -46.46949 | 2467 ft | 20 kts | 253° |
| 2026-04-23 19:56 | -23.42835 | -46.47094 | 2461 ft | 20 kts | 253° |
| 2026-04-23 19:56 | -23.42874 | -46.47238 | 2461 ft | 21 kts | 253° |
| 2026-04-23 19:57 | -23.42915 | -46.47388 | 2464 ft | 21 kts | 253° |
| 2026-04-23 19:57 | -23.42956 | -46.47538 | 2462 ft | 21 kts | 253° |
| 2026-04-23 19:57 | -23.42998 | -46.47692 | 2463 ft | 21 kts | 253° |
| 2026-04-23 19:57 | -23.43013 | -46.47805 | 2461 ft | 11 kts | 309° |
| 2026-04-23 19:58 | -23.42951 | -46.47834 | 2461 ft | 10 kts | 357° |
| 2026-04-23 19:58 | -23.42877 | -46.47842 | 2465 ft | 11 kts | 350° |
| 2026-04-23 19:58 | -23.42821 | -46.47876 | 2461 ft | 9 kts | 267° |
| 2026-04-23 19:58 | -23.42834 | -46.47945 | 2461 ft | 10 kts | 263° |
| 2026-04-23 19:59 | -23.42834 | -46.47953 | 2461 ft | 0 kts | 263° |